Time;durP1;ratioP1;P1;durP2;ratioP2;P2;SDS_P1;SDS_P2;PMS_P1;PMS_P2;Temp;Humidity;BMP_temperature;BMP_pressure;BME280_temperature;BME280_humidity;BME280_pressure;Samples;Min_cycle;Max_cycle;Signal;HPM_P1;HPM_P2
2024/04/16 00:00:18;;;;;;;9.73;1.27;;;;;;;8.63;100.00;100471.06;5631774;26;20006;-72
2024/04/16 00:02:49;;;;;;;8.60;1.50;;;;;;;8.64;100.00;100464.75;5620706;26;20015;-72
2024/04/16 00:05:19;;;;;;;8.30;1.10;;;;;;;8.54;100.00;100460.38;5626172;26;20084;-73
2024/04/16 00:07:51;;;;;;;10.48;1.52;;;;;;;8.43;100.00;100462.47;5628548;26;20052;-73
2024/04/16 00:10:22;;;;;;;7.53;2.22;;;;;;;8.32;100.00;100464.41;5632326;26;20013;-73
2024/04/16 00:12:52;;;;;;;6.85;1.27;;;;;;;8.35;100.00;100465.13;5629052;26;20002;-73
2024/04/16 00:15:23;;;;;;;7.45;1.48;;;;;;;8.29;100.00;100456.75;5633925;26;20455;-73
2024/04/16 00:17:53;;;;;;;6.88;1.40;;;;;;;8.41;100.00;100462.66;5631685;26;20030;-73
2024/04/16 00:20:24;;;;;;;5.90;1.40;;;;;;;8.45;100.00;100450.66;5629660;26;20010;-73
2024/04/16 00:22:54;;;;;;;8.50;1.90;;;;;;;8.43;100.00;100449.94;5636848;26;20003;-73
2024/04/16 00:25:25;;;;;;;8.07;1.20;;;;;;;8.47;100.00;100453.97;5633247;26;19995;-73
2024/04/16 00:27:55;;;;;;;8.98;1.83;;;;;;;8.42;100.00;100439.44;5637009;26;19999;-73
2024/04/16 00:30:26;;;;;;;6.13;1.45;;;;;;;8.45;100.00;100436.44;5631890;26;20003;-73
2024/04/16 00:32:56;;;;;;;9.57;2.22;;;;;;;8.40;100.00;100430.75;5631951;26;20447;-73
2024/04/16 00:35:27;;;;;;;7.00;1.85;;;;;;;8.37;100.00;100418.53;5637061;26;19999;-73
2024/04/16 00:37:58;;;;;;;7.05;1.67;;;;;;;8.40;100.00;100417.38;5637026;26;20013;-73
2024/04/16 00:40:28;;;;;;;6.47;1.20;;;;;;;8.39;100.00;100411.22;5630671;26;20402;-73
2024/04/16 00:42:59;;;;;;;7.15;1.35;;;;;;;8.34;100.00;100404.66;5635756;26;20071;-73
2024/04/16 00:45:30;;;;;;;10.38;1.58;;;;;;;8.39;100.00;100405.03;5629174;26;20491;-73
2024/04/16 00:48:00;;;;;;;6.13;1.10;;;;;;;8.41;100.00;100405.69;5633354;26;20006;-73
2024/04/16 00:50:31;;;;;;;7.97;1.27;;;;;;;8.32;100.00;100405.63;5626175;26;20352;-73
2024/04/16 00:53:02;;;;;;;10.13;1.75;;;;;;;8.42;100.00;100399.34;5632374;26;20318;-73
2024/04/16 00:55:33;;;;;;;11.63;2.13;;;;;;;8.38;100.00;100401.50;5634353;26;20084;-73
2024/04/16 00:58:04;;;;;;;8.57;1.48;;;;;;;8.44;100.00;100397.34;5632602;26;20013;-73
2024/04/16 01:00:36;;;;;;;12.05;1.45;;;;;;;8.48;100.00;100393.31;5632388;26;20344;-73
2024/04/16 01:03:06;;;;;;;8.13;1.23;;;;;;;8.54;100.00;100387.34;5637092;26;20100;-73
2024/04/16 01:05:39;;;;;;;8.23;1.48;;;;;;;8.62;100.00;100398.03;5633602;26;20411;-73
2024/04/16 01:08:11;;;;;;;13.88;1.88;;;;;;;8.73;100.00;100386.19;5632123;26;20003;-73
2024/04/16 01:10:41;;;;;;;16.35;1.75;;;;;;;8.70;100.00;100386.53;5631628;26;20096;-73
2024/04/16 01:13:14;;;;;;;14.55;1.60;;;;;;;8.70;100.00;100394.56;5636772;26;20005;-73
2024/04/16 01:15:53;;;;;;;17.75;1.80;;;;;;;8.54;100.00;100387.34;5632160;26;20090;-74
2024/04/16 01:18:23;;;;;;;11.65;1.95;;;;;;;8.56;100.00;100372.81;5637480;26;20452;-73
2024/04/16 01:20:57;;;;;;;12.23;1.60;;;;;;;8.54;100.00;100353.44;5634992;26;19999;-73
2024/04/16 01:23:28;;;;;;;10.30;1.50;;;;;;;8.44;100.00;100371.44;5634597;26;20017;-74
2024/04/16 01:25:58;;;;;;;10.88;1.92;;;;;;;8.39;100.00;100356.91;5637082;26;20082;-73
2024/04/16 01:28:29;;;;;;;4.05;1.30;;;;;;;8.47;100.00;100359.59;5633357;26;20339;-73
2024/04/16 01:31:03;;;;;;;5.00;1.27;;;;;;;8.40;100.00;100343.38;5635199;26;20013;-74
2024/04/16 01:33:34;;;;;;;6.25;1.08;;;;;;;8.38;100.00;100349.88;5637357;26;19999;-73
2024/04/16 01:36:16;;;;;;;9.23;1.48;;;;;;;8.46;100.00;100348.06;5631312;26;19999;-73
2024/04/16 01:38:47;;;;;;;11.73;1.77;;;;;;;8.39;100.00;100341.72;5629627;26;19996;-73
2024/04/16 01:41:17;;;;;;;7.93;1.40;;;;;;;8.39;100.00;100355.06;5632363;26;20014;-74
2024/04/16 01:43:48;;;;;;;11.55;1.88;;;;;;;8.45;100.00;100351.72;5631528;26;20394;-73
2024/04/16 01:46:18;;;;;;;8.80;1.95;;;;;;;8.43;100.00;100337.69;5636786;26;20006;-73
2024/04/16 01:48:49;;;;;;;14.88;1.48;;;;;;;8.58;100.00;100335.19;5633907;26;20019;-73
2024/04/16 01:51:20;;;;;;;13.02;1.70;;;;;;;8.60;100.00;100337.72;5631268;26;20040;-73
2024/04/16 01:53:50;;;;;;;11.85;2.35;;;;;;;8.55;100.00;100348.91;5636968;26;20003;-73
2024/04/16 01:56:21;;;;;;;20.48;2.20;;;;;;;8.57;100.00;100345.06;5637059;26;20050;-74
2024/04/16 01:58:52;;;;;;;8.45;1.88;;;;;;;8.64;100.00;100350.59;5633172;26;20068;-73
2024/04/16 02:01:23;;;;;;;14.40;1.58;;;;;;;8.54;100.00;100337.38;5632183;26;20038;-73
2024/04/16 02:03:53;;;;;;;10.00;1.42;;;;;;;8.47;100.00;100341.69;5635089;26;19999;-73
2024/04/16 02:06:24;;;;;;;11.98;2.33;;;;;;;8.19;100.00;100353.66;5636480;26;20006;-74
2024/04/16 02:08:56;;;;;;;12.05;2.20;;;;;;;8.26;100.00;100352.00;5635957;26;20014;-73
2024/04/16 02:11:27;;;;;;;6.40;1.60;;;;;;;8.20;100.00;100352.66;5634454;26;20019;-73
2024/04/16 02:13:57;;;;;;;13.55;2.58;;;;;;;8.20;100.00;100358.00;5631150;26;20002;-74
2024/04/16 02:16:28;;;;;;;20.10;3.20;;;;;;;8.12;100.00;100336.59;5633204;26;20017;-73
2024/04/16 02:18:59;;;;;;;10.52;1.80;;;;;;;8.04;100.00;100343.59;5636135;26;20109;-74
2024/04/16 02:21:32;;;;;;;14.80;2.67;;;;;;;7.98;100.00;100348.72;5631917;26;20082;-73
2024/04/16 02:24:03;;;;;;;11.00;1.95;;;;;;;7.98;100.00;100354.06;5633387;26;20111;-73
2024/04/16 02:26:33;;;;;;;6.15;1.73;;;;;;;8.09;100.00;100339.59;5636441;26;20014;-73
2024/04/16 02:29:04;;;;;;;11.18;2.40;;;;;;;8.13;100.00;100343.59;5638659;26;19998;-73
2024/04/16 02:31:35;;;;;;;10.93;1.50;;;;;;;8.18;100.00;100335.94;5634934;26;20038;-73
2024/04/16 02:34:05;;;;;;;13.25;1.80;;;;;;;8.13;100.00;100331.06;5631024;26;19999;-73
2024/04/16 02:36:36;;;;;;;10.77;1.75;;;;;;;8.11;100.00;100322.41;5636274;26;20003;-73
2024/04/16 02:39:07;;;;;;;6.88;1.50;;;;;;;8.08;100.00;100316.53;5629846;26;20368;-73
2024/04/16 02:41:38;;;;;;;10.73;2.70;;;;;;;8.02;100.00;100318.84;5634057;26;20013;-73
2024/04/16 02:44:08;;;;;;;9.05;1.67;;;;;;;7.96;100.00;100324.84;5632309;26;19995;-73
2024/04/16 02:46:39;;;;;;;8.20;1.60;;;;;;;8.01;100.00;100317.19;5633687;26;20043;-73
2024/04/16 02:49:09;;;;;;;8.85;1.60;;;;;;;7.98;100.00;100312.19;5633295;26;20009;-73
2024/04/16 02:51:40;;;;;;;6.45;1.70;;;;;;;7.99;100.00;100300.50;5633762;26;20011;-73
2024/04/16 02:54:10;;;;;;;5.07;1.40;;;;;;;8.04;100.00;100308.84;5635934;26;20010;-73
2024/04/16 02:56:41;;;;;;;12.75;1.63;;;;;;;8.10;100.00;100311.88;5634564;26;20456;-73
2024/04/16 02:59:11;;;;;;;12.18;1.60;;;;;;;8.02;100.00;100313.50;5633279;26;20038;-73
2024/04/16 03:01:42;;;;;;;9.05;1.60;;;;;;;8.08;100.00;100314.69;5629926;26;20067;-73
2024/04/16 03:04:12;;;;;;;9.57;1.63;;;;;;;8.14;100.00;100311.38;5633538;26;19995;-73
2024/04/16 03:06:43;;;;;;;8.20;1.58;;;;;;;8.20;100.00;100301.88;5635589;26;20042;-73
2024/04/16 03:09:13;;;;;;;9.73;1.48;;;;;;;8.19;100.00;100302.88;5633398;26;20534;-73
2024/04/16 03:11:44;;;;;;;8.88;2.08;;;;;;;8.16;100.00;100309.38;5633420;26;19999;-73
2024/04/16 03:14:15;;;;;;;4.82;1.60;;;;;;;8.02;100.00;100308.16;5635448;26;19995;-73
2024/04/16 03:16:46;;;;;;;14.38;1.77;;;;;;;8.12;100.00;100324.06;5632932;26;20460;-73
2024/04/16 03:19:16;;;;;;;7.35;1.40;;;;;;;8.08;100.00;100337.91;5633460;26;19995;-73
2024/04/16 03:21:47;;;;;;;8.30;1.60;;;;;;;7.99;100.00;100326.38;5633977;26;19999;-73
2024/04/16 03:24:18;;;;;;;9.23;1.70;;;;;;;7.87;100.00;100300.94;5631342;26;19995;-74
2024/04/16 03:26:48;;;;;;;9.05;2.03;;;;;;;7.89;100.00;100307.81;5633568;26;19999;-74
2024/04/16 03:29:19;;;;;;;8.95;1.75;;;;;;;7.90;100.00;100303.31;5633834;26;20014;-73
2024/04/16 03:31:50;;;;;;;8.73;2.00;;;;;;;7.92;100.00;100298.63;5632149;26;20402;-73
2024/04/16 03:34:20;;;;;;;14.80;2.30;;;;;;;7.92;100.00;100302.13;5635319;26;20014;-73
2024/04/16 03:36:51;;;;;;;4.93;1.90;;;;;;;7.91;100.00;100291.63;5635142;26;20002;-73
2024/04/16 03:39:21;;;;;;;8.82;2.25;;;;;;;7.92;100.00;100283.44;5634423;26;19995;-73
2024/04/16 03:41:52;;;;;;;13.48;4.45;;;;;;;7.93;100.00;100285.13;5631388;26;19996;-73
2024/04/16 03:44:22;;;;;;;12.32;4.07;;;;;;;7.96;100.00;100284.78;5634865;26;19999;-73
2024/04/16 03:46:53;;;;;;;5.72;2.90;;;;;;;7.98;100.00;100280.13;5635077;26;19995;-73
2024/04/16 03:49:23;;;;;;;5.20;2.30;;;;;;;7.98;100.00;100272.13;5634689;26;19999;-73
2024/04/16 03:51:54;;;;;;;13.25;2.60;;;;;;;7.97;100.00;100277.59;5632097;26;20535;-73
2024/04/16 03:54:24;;;;;;;13.68;3.60;;;;;;;8.03;100.00;100267.13;5634560;26;19998;-73
2024/04/16 03:56:55;;;;;;;7.22;2.78;;;;;;;8.02;100.00;100270.78;5634530;26;20060;-73
2024/04/16 03:59:37;;;;;;;9.25;2.47;;;;;;;8.04;100.00;100275.97;5632966;26;19994;-73
2024/04/16 04:02:07;;;;;;;9.88;2.65;;;;;;;8.11;100.00;100273.47;5634414;26;20340;-74
2024/04/16 04:04:38;;;;;;;9.45;2.97;;;;;;;8.18;100.00;100270.00;5634231;26;20005;-74
2024/04/16 04:07:08;;;;;;;15.95;3.65;;;;;;;8.20;100.00;100267.16;5635247;26;20076;-73
2024/04/16 04:09:39;;;;;;;8.27;3.10;;;;;;;8.20;100.00;100245.75;5635281;26;19995;-74
2024/04/16 04:12:10;;;;;;;13.85;3.22;;;;;;;8.19;100.00;100238.75;5637461;26;19998;-74
2024/04/16 04:14:40;;;;;;;10.82;4.55;;;;;;;8.14;100.00;100235.75;5638615;26;20010;-73
2024/04/16 04:17:11;;;;;;;9.27;2.78;;;;;;;8.15;100.00;100238.25;5637083;26;19995;-73
2024/04/16 04:19:41;;;;;;;7.95;3.35;;;;;;;8.16;100.00;100229.22;5635415;26;19991;-73
2024/04/16 04:22:12;;;;;;;14.43;3.75;;;;;;;8.19;100.00;100230.75;5638307;26;20077;-73
2024/04/16 04:24:43;;;;;;;15.40;4.10;;;;;;;8.10;100.00;100229.06;5638058;26;20468;-73
2024/04/16 04:27:13;;;;;;;14.07;3.13;;;;;;;8.13;100.00;100236.72;5636161;26;19991;-73
2024/04/16 04:29:44;;;;;;;12.88;3.55;;;;;;;8.23;100.00;100224.91;5638924;26;20472;-73
2024/04/16 04:32:15;;;;;;;21.85;8.77;;;;;;;8.36;100.00;100240.47;5637231;26;20428;-73
2024/04/16 04:34:45;;;;;;;23.58;11.48;;;;;;;8.38;100.00;100233.09;5632317;26;20080;-73
2024/04/16 04:37:16;;;;;;;19.83;5.25;;;;;;;8.40;100.00;100227.59;5637075;26;19999;-73
2024/04/16 04:39:46;;;;;;;14.27;6.25;;;;;;;8.41;100.00;100235.44;5634261;26;19999;-74
2024/04/16 04:42:17;;;;;;;15.07;4.95;;;;;;;8.34;100.00;100226.41;5635892;26;20392;-73
2024/04/16 04:44:47;;;;;;;14.20;4.50;;;;;;;8.44;100.00;100234.28;5637806;26;20071;-74
2024/04/16 04:47:19;;;;;;;11.48;2.92;;;;;;;8.44;100.00;100236.97;5637592;26;20003;-73
2024/04/16 04:49:49;;;;;;;6.53;2.47;;;;;;;8.44;100.00;100239.63;5635823;26;20006;-74
2024/04/16 04:52:20;;;;;;;15.13;2.90;;;;;;;8.47;100.00;100225.91;5637413;26;20487;-73
2024/04/16 04:54:50;;;;;;;9.82;2.30;;;;;;;8.49;100.00;100216.75;5636899;26;20013;-74
2024/04/16 04:57:21;;;;;;;6.28;2.65;;;;;;;8.47;100.00;100225.91;5637258;26;20002;-73
2024/04/16 04:59:51;;;;;;;10.70;2.00;;;;;;;8.45;100.00;100222.59;5635679;26;20014;-73
2024/04/16 05:02:22;;;;;;;10.77;2.47;;;;;;;8.47;100.00;100204.53;5636579;26;20013;-74
2024/04/16 05:04:52;;;;;;;7.25;1.70;;;;;;;8.49;100.00;100198.03;5636314;26;20114;-73
2024/04/16 05:07:23;;;;;;;12.77;2.33;;;;;;;8.56;100.00;100212.38;5637216;26;20340;-74
2024/04/16 05:09:53;;;;;;;7.35;3.03;;;;;;;8.52;100.00;100208.38;5633607;26;20067;-72
2024/04/16 05:12:24;;;;;;;14.13;2.88;;;;;;;8.58;100.00;100206.84;5636559;26;20002;-73
2024/04/16 05:14:54;;;;;;;12.95;2.83;;;;;;;8.56;100.00;100219.56;5637194;26;20002;-73
2024/04/16 05:17:25;;;;;;;12.07;2.67;;;;;;;8.54;100.00;100209.06;5636682;26;20009;-73
2024/04/16 05:19:56;;;;;;;9.80;2.30;;;;;;;8.47;100.00;100210.72;5634777;26;20007;-74
2024/04/16 05:22:26;;;;;;;12.98;2.00;;;;;;;8.49;100.00;100237.31;5636880;26;19999;-74
2024/04/16 05:24:57;;;;;;;10.57;2.20;;;;;;;8.50;100.00;100221.09;5637037;26;22279;-73
2024/04/16 05:27:30;;;;;;;9.80;1.70;;;;;;;8.26;100.00;100216.53;5636211;26;20006;-74
2024/04/16 05:30:01;;;;;;;9.80;1.98;;;;;;;8.30;100.00;100207.19;5634413;26;20002;-74
2024/04/16 05:32:31;;;;;;;6.68;1.38;;;;;;;8.34;100.00;100202.34;5628185;26;20381;-73
2024/04/16 05:35:02;;;;;;;4.28;1.90;;;;;;;8.34;100.00;100199.69;5636771;26;19995;-73
2024/04/16 05:37:33;;;;;;;13.57;4.20;;;;;;;8.32;100.00;100199.00;5636768;26;20010;-74
2024/04/16 05:40:04;;;;;;;6.55;1.73;;;;;;;8.31;100.00;100216.03;5634378;26;20006;-74
2024/04/16 05:42:34;;;;;;;9.82;1.90;;;;;;;8.37;100.00;100215.41;5636011;26;20460;-74
2024/04/16 05:45:05;;;;;;;13.80;2.80;;;;;;;8.44;100.00;100208.41;5636711;26;20444;-74
2024/04/16 05:47:35;;;;;;;5.25;1.73;;;;;;;8.48;100.00;100227.59;5636997;26;20390;-73
2024/04/16 05:50:06;;;;;;;7.05;1.83;;;;;;;8.48;100.00;100235.59;5634863;26;19995;-74
2024/04/16 05:52:37;;;;;;;8.75;2.45;;;;;;;8.55;100.00;100245.47;5636281;26;20011;-73
2024/04/16 05:55:08;;;;;;;9.88;2.13;;;;;;;8.56;100.00;100228.41;5636067;26;20679;-73
2024/04/16 05:57:38;;;;;;;5.97;2.28;;;;;;;8.60;100.00;100246.81;5636268;26;20006;-74
2024/04/16 06:00:09;;;;;;;8.48;2.20;;;;;;;8.63;100.00;100252.63;5623936;26;20006;-74
2024/04/16 06:02:40;;;;;;;12.98;2.72;;;;;;;8.69;100.00;100245.81;5636580;26;19995;-73
2024/04/16 06:05:10;;;;;;;12.60;2.40;;;;;;;8.68;100.00;100258.31;5636848;26;20022;-73
2024/04/16 06:07:41;;;;;;;12.75;3.30;;;;;;;8.72;100.00;100253.47;5629421;26;20432;-74
2024/04/16 06:10:11;;;;;;;13.80;3.60;;;;;;;8.77;100.00;100267.19;5629793;26;20442;-74
2024/04/16 06:12:42;;;;;;;10.38;3.58;;;;;;;8.80;100.00;100258.81;5636027;26;20003;-74
2024/04/16 06:15:13;;;;;;;12.13;3.70;;;;;;;8.86;100.00;100260.00;5636353;26;20013;-74
2024/04/16 06:17:43;;;;;;;11.00;4.40;;;;;;;8.86;100.00;100260.81;5627372;26;19999;-72
2024/04/16 06:20:15;;;;;;;10.40;3.95;;;;;;;8.86;100.00;100262.66;5634662;26;20019;-72
2024/04/16 06:22:46;;;;;;;15.43;4.63;;;;;;;9.00;100.00;100264.66;5634626;26;20449;-72
2024/04/16 06:25:17;;;;;;;14.80;4.22;;;;;;;9.03;100.00;100259.78;5622132;26;20722;-72
2024/04/16 06:27:49;;;;;;;14.25;4.03;;;;;;;9.09;100.00;100260.97;5635950;26;20003;-73
2024/04/16 06:30:19;;;;;;;16.85;3.67;;;;;;;9.09;100.00;100255.59;5633254;26;20317;-72
2024/04/16 06:32:50;;;;;;;13.50;4.05;;;;;;;9.22;100.00;100261.25;5635434;26;20567;-73
2024/04/16 06:35:20;;;;;;;16.20;4.75;;;;;;;9.26;100.00;100265.25;5631896;26;20006;-73
2024/04/16 06:37:51;;;;;;;11.27;4.15;;;;;;;9.34;100.00;100273.25;5630045;26;20071;-72
2024/04/16 06:40:21;;;;;;;15.68;4.07;;;;;;;9.46;100.00;100267.53;5627162;26;20022;-72
2024/04/16 06:42:54;;;;;;;19.88;4.10;;;;;;;9.53;100.00;100288.06;5626586;26;19994;-72
2024/04/16 06:45:25;;;;;;;19.17;3.83;;;;;;;9.45;100.00;100284.59;5621633;26;20313;-74
2024/04/16 06:47:56;;;;;;;15.55;3.70;;;;;;;9.46;100.00;100272.88;5628874;26;20010;-74
2024/04/16 06:50:26;;;;;;;19.52;4.47;;;;;;;9.44;100.00;100283.78;5627024;26;20064;-74
2024/04/16 06:52:57;;;;;;;12.85;3.90;;;;;;;9.45;100.00;100284.59;5627472;26;20525;-74
2024/04/16 06:55:30;;;;;;;25.67;3.67;;;;;;;9.46;100.00;100292.47;5632147;26;20002;-74
2024/04/16 06:58:00;;;;;;;22.83;3.90;;;;;;;9.65;100.00;100293.91;5627630;26;19999;-74
2024/04/16 07:00:31;;;;;;;21.25;3.53;;;;;;;9.71;100.00;100297.72;5628403;26;20002;-74
2024/04/16 07:03:04;;;;;;;14.95;3.28;;;;;;;9.90;100.00;100312.56;5626921;26;20117;-73
2024/04/16 07:05:36;;;;;;;18.52;4.10;;;;;;;9.97;100.00;100306.31;5627660;26;20007;-73
2024/04/16 07:08:07;;;;;;;13.63;2.60;;;;;;;9.93;100.00;100304.16;5626534;26;20440;-72
2024/04/16 07:10:37;;;;;;;17.25;3.15;;;;;;;10.14;100.00;100309.75;5625679;26;20003;-73
2024/04/16 07:13:08;;;;;;;11.35;2.20;;;;;;;10.22;100.00;100315.03;5629582;26;20010;-72
2024/04/16 07:15:39;;;;;;;16.33;2.47;;;;;;;10.49;100.00;100320.94;5632073;26;20013;-72
2024/04/16 07:18:09;;;;;;;16.08;3.40;;;;;;;10.79;100.00;100328.09;5627672;26;20009;-72
2024/04/16 07:20:48;;;;;;;9.60;2.28;;;;;;;10.75;100.00;100325.94;5630798;26;20017;-72
2024/04/16 07:23:18;;;;;;;5.10;1.88;;;;;;;10.94;100.00;100344.22;5629597;26;20010;-72
2024/04/16 07:25:49;;;;;;;12.57;1.73;;;;;;;10.86;100.00;100350.50;5626848;26;20002;-73
2024/04/16 07:28:19;;;;;;;14.10;2.03;;;;;;;10.80;100.00;100355.75;5632607;26;20053;-72
2024/04/16 07:30:50;;;;;;;13.73;2.25;;;;;;;10.60;100.00;100348.19;5630046;26;20459;-72
2024/04/16 07:33:21;;;;;;;10.50;1.52;;;;;;;10.57;100.00;100350.38;5631218;26;20042;-72
2024/04/16 07:35:54;;;;;;;11.93;1.63;;;;;;;10.52;100.00;100360.81;5630880;26;20002;-72
2024/04/16 07:38:24;;;;;;;7.25;1.67;;;;;;;10.51;100.00;100354.63;5632042;26;20010;-72
2024/04/16 07:40:55;;;;;;;8.98;1.85;;;;;;;10.69;100.00;100354.31;5625576;26;20002;-72
2024/04/16 07:43:26;;;;;;;11.23;1.95;;;;;;;10.89;100.00;100358.22;5627261;26;20654;-72
2024/04/16 07:45:56;;;;;;;12.82;2.40;;;;;;;10.95;100.00;100351.28;5627028;26;20477;-72
2024/04/16 07:48:27;;;;;;;12.05;2.60;;;;;;;10.93;100.00;100347.91;5628232;26;20002;-72
2024/04/16 07:50:57;;;;;;;15.93;2.60;;;;;;;11.00;100.00;100362.31;5621769;26;20797;-72
2024/04/16 07:53:28;;;;;;;16.42;2.80;;;;;;;11.09;100.00;100357.69;5634068;26;20003;-72
2024/04/16 07:55:58;;;;;;;16.25;2.80;;;;;;;11.04;100.00;100362.75;5631433;26;20014;-73
2024/04/16 07:58:29;;;;;;;12.23;2.80;;;;;;;11.11;100.00;100375.28;5635443;26;20440;-72
2024/04/16 08:00:59;;;;;;;11.10;2.60;;;;;;;11.11;100.00;100372.59;5633549;26;19998;-72
2024/04/16 08:03:30;;;;;;;12.13;2.25;;;;;;;10.84;100.00;100384.75;5630482;26;20413;-72
2024/04/16 08:06:00;;;;;;;20.88;3.10;;;;;;;10.76;100.00;100386.66;5634782;26;20003;-72
2024/04/16 08:08:32;;;;;;;11.65;2.25;;;;;;;10.64;100.00;100394.25;5631920;26;20009;-72
2024/04/16 08:11:10;;;;;;;11.35;3.05;;;;;;;10.72;100.00;100399.56;5628966;26;19995;-72
2024/04/16 08:13:40;;;;;;;11.77;2.17;;;;;;;10.65;100.00;100401.31;5630454;26;19999;-72
2024/04/16 08:16:11;;;;;;;16.35;2.10;;;;;;;10.62;100.00;100404.34;5635176;26;20816;-73
2024/04/16 08:18:41;;;;;;;22.60;2.80;;;;;;;10.78;100.00;100411.44;5626898;26;20028;-72
2024/04/16 08:21:12;;;;;;;9.57;1.88;;;;;;;10.86;100.00;100416.75;5624687;26;20003;-72
2024/04/16 08:23:42;;;;;;;12.13;1.90;;;;;;;11.01;100.00;100422.19;5634969;26;19998;-72
2024/04/16 08:26:13;;;;;;;11.82;2.83;;;;;;;11.01;100.00;100423.03;5634928;26;20786;-72
2024/04/16 08:28:44;;;;;;;7.50;1.77;;;;;;;11.04;100.00;100417.28;5637471;26;20009;-72
2024/04/16 08:31:14;;;;;;;12.30;1.85;;;;;;;11.51;100.00;100426.97;5629221;26;20468;-74
2024/04/16 08:33:45;;;;;;;8.50;1.40;;;;;;;11.85;100.00;100417.59;5626430;26;20052;-74
2024/04/16 08:36:15;;;;;;;8.57;1.60;;;;;;;12.48;100.00;100424.19;5633243;26;20030;-74
2024/04/16 08:38:46;;;;;;;13.50;2.53;;;;;;;12.86;100.00;100415.94;5630512;26;20029;-74
2024/04/16 08:41:16;;;;;;;16.75;2.10;;;;;;;12.90;100.00;100425.25;5629978;26;19995;-74
2024/04/16 08:43:49;;;;;;;19.02;2.40;;;;;;;12.98;100.00;100419.75;5633871;26;20017;-74
2024/04/16 08:46:20;;;;;;;6.40;1.63;;;;;;;12.81;100.00;100413.81;5634743;26;20002;-74
2024/04/16 08:48:52;;;;;;;6.78;1.30;;;;;;;12.83;100.00;100425.19;5632887;26;20017;-74
2024/04/16 08:51:22;;;;;;;8.88;1.75;;;;;;;13.20;100.00;100426.81;5626135;26;20514;-74
2024/04/16 08:53:55;;;;;;;10.20;1.63;;;;;;;13.23;100.00;100424.78;5633197;26;19995;-74
2024/04/16 08:56:25;;;;;;;14.45;1.95;;;;;;;13.18;100.00;100433.41;5633907;26;20068;-74
2024/04/16 08:58:56;;;;;;;24.00;1.80;;;;;;;12.89;100.00;100435.19;5633417;26;20002;-74
2024/04/16 09:01:28;;;;;;;12.57;1.63;;;;;;;12.61;100.00;100451.25;5629736;26;19998;-74
2024/04/16 09:03:59;;;;;;;5.97;1.55;;;;;;;12.30;100.00;100442.56;5625512;26;20020;-74
2024/04/16 09:06:31;;;;;;;6.22;1.48;;;;;;;12.04;100.00;100451.94;5630380;26;20034;-74
2024/04/16 09:09:02;;;;;;;9.40;1.30;;;;;;;11.90;100.00;100444.75;5624725;26;19999;-75
2024/04/16 09:11:32;;;;;;;8.32;1.40;;;;;;;11.61;100.00;100461.63;5632438;26;20007;-74
2024/04/16 09:14:03;;;;;;;8.18;1.30;;;;;;;11.68;100.00;100457.19;5632519;26;20068;-74
2024/04/16 09:16:35;;;;;;;7.78;1.38;;;;;;;12.19;100.00;100457.31;5633816;26;20003;-74
2024/04/16 09:19:10;;;;;;;10.25;1.67;;;;;;;12.98;100.00;100460.16;5633595;26;19994;-74
2024/04/16 09:21:41;;;;;;;10.25;1.45;;;;;;;13.47;100.00;100467.50;5632205;26;20341;-74
2024/04/16 09:24:12;;;;;;;9.57;2.00;;;;;;;13.58;100.00;100471.50;5633734;26;20056;-74
2024/04/16 09:26:42;;;;;;;16.60;3.70;;;;;;;13.35;100.00;100472.56;5631912;26;20003;-74
2024/04/16 09:29:23;;;;;;;17.20;2.03;;;;;;;12.85;100.00;100486.91;5633691;26;20463;-74
2024/04/16 09:32:03;;;;;;;13.30;1.88;;;;;;;12.56;100.00;100488.66;5629818;26;20002;-74
2024/04/16 09:34:34;;;;;;;6.55;1.80;;;;;;;12.18;100.00;100486.09;5625145;26;20075;-74
2024/04/16 09:37:04;;;;;;;7.50;1.52;;;;;;;12.23;100.00;100477.47;5626271;26;20020;-74
2024/04/16 09:39:34;;;;;;;11.93;2.15;;;;;;;12.43;100.00;100480.41;5632518;26;20003;-73
2024/04/16 09:42:06;;;;;;;9.52;1.98;;;;;;;12.98;100.00;100480.88;5632384;26;19995;-74
2024/04/16 09:44:38;;;;;;;20.33;14.48;;;;;;;13.31;100.00;100492.00;5633413;26;19995;-74
2024/04/16 09:47:09;;;;;;;10.88;1.98;;;;;;;13.54;100.00;100487.22;5630373;26;20648;-74
2024/04/16 09:49:40;;;;;;;12.77;6.43;;;;;;;13.77;100.00;100505.06;5632102;26;20003;-74
2024/04/16 09:52:13;;;;;;;13.50;2.80;;;;;;;13.85;100.00;100488.72;5633101;26;20075;-74
2024/04/16 09:54:44;;;;;;;9.60;2.45;;;;;;;13.84;100.00;100505.94;5632637;26;20385;-74
2024/04/16 09:57:15;;;;;;;7.72;1.58;;;;;;;13.59;100.00;100495.56;5632642;26;20002;-74
2024/04/16 09:59:47;;;;;;;8.50;2.03;;;;;;;13.40;100.00;100509.69;5630080;26;19999;-74
2024/04/16 10:02:20;;;;;;;14.60;1.73;;;;;;;13.34;100.00;100497.00;5632556;26;20079;-74
2024/04/16 10:04:53;;;;;;;14.05;5.88;;;;;;;13.24;100.00;100508.09;5631314;26;20079;-74
2024/04/16 10:07:24;;;;;;;11.85;5.32;;;;;;;13.25;100.00;100512.44;5630854;26;20594;-74
2024/04/16 10:09:54;;;;;;;9.65;1.58;;;;;;;13.13;100.00;100505.88;5629282;26;20007;-73
2024/04/16 10:12:26;;;;;;;9.70;2.03;;;;;;;13.23;100.00;100506.44;5632593;26;19995;-74
2024/04/16 10:14:56;;;;;;;10.38;1.90;;;;;;;13.34;100.00;100502.38;5633428;26;20068;-73
2024/04/16 10:17:28;;;;;;;6.07;1.80;;;;;;;13.11;100.00;100518.72;5633222;26;20006;-73
2024/04/16 10:20:10;;;;;;;11.27;2.35;;;;;;;13.13;100.00;100513.97;5626923;26;20009;-74
2024/04/16 10:22:41;;;;;;;7.55;2.30;;;;;;;13.12;100.00;100523.91;5628370;26;20050;-73
2024/04/16 10:25:12;;;;;;;15.10;1.45;;;;;;;12.90;100.00;100506.88;5625518;26;20017;-73
2024/04/16 10:27:42;;;;;;;11.73;2.22;;;;;;;12.67;100.00;100501.63;5622977;26;20013;-73
2024/04/16 10:30:15;;;;;;;10.02;1.90;;;;;;;12.51;100.00;100527.94;5623903;26;20006;-73
2024/04/16 10:32:47;;;;;;;16.60;1.83;;;;;;;12.16;100.00;100552.69;5627843;26;19999;-74
2024/04/16 10:35:18;;;;;;;15.88;2.58;;;;;;;11.54;100.00;100568.97;5625780;26;20011;-74
2024/04/16 10:37:49;;;;;;;9.60;1.70;;;;;;;10.73;100.00;100564.06;5630695;26;20072;-74
2024/04/16 10:40:26;;;;;;;4.80;1.40;;;;;;;10.30;100.00;100567.06;5627954;26;20002;-74
2024/04/16 10:42:58;;;;;;;4.95;0.90;;;;;;;9.97;100.00;100587.69;5617313;26;19995;-74
2024/04/16 10:45:29;;;;;;;2.90;0.50;;;;;;;9.65;100.00;100579.66;5628010;26;20068;-74
2024/04/16 10:48:00;;;;;;;2.63;0.50;;;;;;;9.65;100.00;100563.59;5628472;26;20002;-74
2024/04/16 10:50:31;;;;;;;7.32;1.23;;;;;;;9.70;100.00;100574.63;5623625;26;19999;-74
2024/04/16 10:53:13;;;;;;;6.60;1.63;;;;;;;9.91;100.00;100569.59;5627140;26;20006;-74
2024/04/16 10:55:44;;;;;;;10.27;1.73;;;;;;;10.01;100.00;100572.09;5630063;26;20059;-74
2024/04/16 10:58:18;;;;;;;11.63;2.10;;;;;;;10.20;100.00;100566.38;5628109;26;19991;-74
2024/04/16 11:00:53;;;;;;;17.45;2.42;;;;;;;10.60;100.00;100575.38;5628460;26;20017;-74
2024/04/16 11:03:23;;;;;;;9.05;2.08;;;;;;;11.03;100.00;100576.66;5626096;26;19994;-74
2024/04/16 11:05:56;;;;;;;8.13;2.17;;;;;;;11.30;100.00;100572.66;5631020;26;20308;-74
2024/04/16 11:08:26;;;;;;;70.75;45.60;;;;;;;11.53;100.00;100586.09;5629435;26;20038;-74
2024/04/16 11:10:57;;;;;;;24.55;8.25;;;;;;;11.44;100.00;100573.72;5627317;26;19999;-74
2024/04/16 11:13:28;;;;;;;11.20;1.83;;;;;;;11.31;100.00;100568.13;5628175;26;19995;-74
2024/04/16 11:15:58;;;;;;;12.45;2.95;;;;;;;11.32;100.00;100565.25;5630529;26;20024;-74
2024/04/16 11:18:30;;;;;;;8.77;1.90;;;;;;;11.34;100.00;100568.59;5636265;26;20476;-74
2024/04/16 11:21:01;;;;;;;10.95;1.83;;;;;;;11.41;100.00;100563.38;5633919;26;20039;-74
2024/04/16 11:23:31;;;;;;;7.00;1.65;;;;;;;11.60;100.00;100570.94;5635406;26;20010;-74
2024/04/16 11:26:03;;;;;;;6.75;1.70;;;;;;;11.54;100.00;100568.13;5633610;26;20538;-74
2024/04/16 11:28:38;;;;;;;7.38;1.90;;;;;;;11.60;100.00;100570.94;5633952;26;20692;-74
2024/04/16 11:31:10;;;;;;;8.27;1.92;;;;;;;11.36;100.00;100581.88;5632129;26;20449;-74
2024/04/16 11:33:40;;;;;;;6.60;1.27;;;;;;;11.37;100.00;100581.69;5632981;26;20081;-74